MDT,Max TemperatureF,Mean TemperatureF,Min TemperatureF,Max Dew PointF,MeanDew PointF,Min DewpointF,Max Humidity, Mean Humidity, Min Humidity, Max Sea Level PressureIn, Mean Sea Level PressureIn, Min Sea Level PressureIn, Max VisibilityMiles, Mean VisibilityMiles, Min VisibilityMiles, Max Wind SpeedMPH, Mean Wind SpeedMPH, Max Gust SpeedMPH,PrecipitationIn, CloudCover, Events, WindDirDegrees
2013-5-1,51,35,19,24,16,8,88,53,18,30.66,30.48,30.27,10,10,10,21,11,26,0.00,0,,321
2013-5-2,58,39,19,22,16,12,77,48,18,30.67,30.55,30.42,10,10,10,18,7,24,0.00,3,,165
2013-5-3,61,45,28,22,20,17,63,42,20,30.42,30.28,30.19,10,10,10,20,13,26,0.00,0,,139
2013-5-4,59,43,26,22,17,14,68,43,17,30.33,30.30,30.26,10,10,10,17,6,21,0.00,0,,83
2013-5-5,65,47,28,30,24,18,69,47,25,30.30,30.21,30.11,10,10,10,15,7,21,0.00,0,,325
2013-5-6,72,53,33,30,27,23,69,44,18,30.12,30.05,29.97,10,10,10,14,6,17,0.00,0,,136
2013-5-7,77,57,36,41,30,25,76,46,15,29.97,29.88,29.81,10,10,10,15,7,18,0.00,0,,172
2013-5-8,68,54,39,42,38,29,85,60,34,30.17,30.04,29.89,10,10,10,21,11,26,0.00,1,,51
2013-5-9,64,49,34,30,27,23,64,46,27,30.27,30.19,30.14,10,10,10,16,9,21,0.00,2,,83
2013-5-10,69,52,34,41,27,19,64,42,20,30.32,30.17,30.04,10,10,10,30,15,40,0.00,1,,313
2013-5-11,58,42,25,23,18,13,69,44,18,30.45,30.35,30.23,10,10,10,12,6,16,0.00,0,,17
2013-5-12,77,54,31,35,25,14,47,33,19,30.23,30.02,29.77,10,10,10,24,12,29,0.00,0,,172
2013-5-13,89,74,59,46,42,36,48,33,17,29.80,29.71,29.52,10,10,10,31,17,43,0.00,0,,259
2013-5-14,77,61,45,52,40,32,93,60,26,29.87,29.71,29.46,10,10,8,45,17,69,0.00,0,,306
2013-5-15,76,62,47,40,35,30,71,45,19,29.93,29.88,29.85,10,10,10,23,9,29,0.00,3,,297
2013-5-16,57,54,50,52,49,35,100,75,50,29.91,29.87,29.84,10,9,2,22,12,26,0.63,8,Rain,68
2013-5-17,73,62,50,58,52,48,96,75,53,29.86,29.82,29.75,10,7,2,22,8,26,1.05,7,Rain-Thunderstorm,100
2013-5-18,72,62,51,58,55,50,100,77,53,29.83,29.78,29.72,10,7,0,26,7,33,0.01,4,Fog-Rain,355
2013-5-19,57,54,50,56,52,48,100,95,89,29.78,29.73,29.62,8,2,0,29,19,39,1.28,8,Fog-Rain,20
2013-5-20,51,51,50,49,47,41,93,90,86,29.90,29.75,29.61,10,5,2,31,24,43,0.58,8,Rain,9
2013-5-21,48,45,42,45,42,39,96,90,83,30.01,29.94,29.86,10,7,2,25,15,31,0.05,8,Rain,21
2013-5-22,67,55,43,43,37,29,92,59,26,30.17,30.07,30.02,10,10,10,25,13,36,0.00,2,,62
2013-5-23,70,55,40,47,41,37,96,66,35,30.19,30.12,30.01,10,10,7,33,20,44,0.00,0,,124
2013-5-24,69,59,48,57,47,39,90,65,39,30.00,29.91,29.86,10,10,6,31,15,38,T,4,Rain,131
2013-5-25,55,46,43,52,46,42,100,97,93,30.02,29.96,29.87,5,1,0,9,7,,0.00,1,Fog-Thunderstorm,82
2013-5-26,,,,,,,,,,29.97,29.91,29.85,,,,,,,0.00,,,-1
2013-5-27,59,59,59,57,56,55,94,90,88,29.87,29.78,29.66,10,6,2,12,7,,0.00,8,Fog-Thunderstorm,190
2013-5-28,71,62,53,54,52,50,88,65,51,29.68,29.66,29.64,10,10,10,17,12,23,0.00,2,,302
2013-5-29,74,62,50,56,53,48,89,69,49,29.66,29.60,29.52,10,10,10,21,11,25,0.00,3,,61
2013-5-30,62,58,53,61,55,52,100,94,87,29.53,29.35,29.28,10,4,0,26,17,33,1.23,7,Fog-Rain,39
2013-5-31,58,52,46,56,49,44,100,93,86,29.98,29.57,29.35,10,7,2,25,16,33,1.18,8,Rain-Thunderstorm,8